createdAt,value
2017-06-11T00:00:16.186Z,101222
2017-06-11T00:02:44.384Z,101217
2017-06-11T00:05:12.801Z,101219
2017-06-11T00:07:41.015Z,101228
2017-06-11T00:10:09.192Z,101224
2017-06-11T00:12:37.710Z,101228
2017-06-11T00:15:05.900Z,101224
2017-06-11T00:17:34.086Z,101217
2017-06-11T00:20:02.480Z,101225
2017-06-11T00:22:31.403Z,101220
2017-06-11T00:24:59.691Z,101220
2017-06-11T00:27:28.088Z,101213
2017-06-11T00:29:56.344Z,101215
2017-06-11T00:32:24.515Z,101214
2017-06-11T00:34:52.945Z,101212
2017-06-11T00:37:21.145Z,101208
2017-06-11T00:39:49.358Z,101213
2017-06-11T00:42:17.845Z,101205
2017-06-11T00:44:46.028Z,101199
2017-06-11T00:47:14.202Z,101209
2017-06-11T00:49:42.603Z,101203
2017-06-11T00:52:10.823Z,101204
2017-06-11T00:54:39.025Z,101197
2017-06-11T00:57:07.509Z,101197
2017-06-11T00:59:35.684Z,101191
2017-06-11T01:02:03.865Z,101200
2017-06-11T01:04:32.246Z,101192
2017-06-11T01:07:00.499Z,101202
2017-06-11T01:09:28.696Z,101183
2017-06-11T01:11:57.202Z,101191
2017-06-11T01:14:25.383Z,101191
2017-06-11T01:16:53.573Z,101188
2017-06-11T01:19:21.969Z,101185
2017-06-11T01:21:50.165Z,101182
2017-06-11T01:24:18.337Z,101178
2017-06-11T01:26:46.821Z,101178
2017-06-11T01:29:15.010Z,101186
2017-06-11T01:31:43.981Z,101180
2017-06-11T01:34:12.465Z,101186
2017-06-11T01:36:40.664Z,101177
2017-06-11T01:39:09.631Z,101172
2017-06-11T01:41:38.094Z,101168
2017-06-11T01:44:06.287Z,101164
2017-06-11T01:46:34.498Z,101170
2017-06-11T01:49:02.853Z,101163
2017-06-11T01:51:31.086Z,101171
2017-06-11T01:53:59.328Z,101171
2017-06-11T01:56:27.693Z,101164
2017-06-11T01:58:55.897Z,101170
2017-06-11T02:01:24.101Z,101172
2017-06-11T02:03:52.683Z,101167
2017-06-11T02:06:20.869Z,101173
2017-06-11T02:08:49.060Z,101172
2017-06-11T02:11:17.502Z,101175
2017-06-11T02:13:45.757Z,101163
2017-06-11T02:16:13.950Z,101159
2017-06-11T02:18:42.353Z,101156
2017-06-11T02:21:10.579Z,101161
2017-06-11T02:23:38.801Z,101156
2017-06-11T02:26:07.248Z,101159
2017-06-11T02:28:35.438Z,101158
2017-06-11T02:31:03.656Z,101160
2017-06-11T02:33:32.195Z,101163
2017-06-11T02:36:00.378Z,101145
2017-06-11T02:38:28.561Z,101149
2017-06-11T02:40:56.997Z,101148
2017-06-11T02:43:25.181Z,101152
2017-06-11T02:45:53.378Z,101144
2017-06-11T02:48:21.940Z,101147
2017-06-11T02:50:50.139Z,101146
2017-06-11T02:53:19.128Z,101146
2017-06-11T02:55:48.303Z,101140
2017-06-11T02:58:16.504Z,101139
2017-06-11T03:00:45.473Z,101144
2017-06-11T03:03:13.963Z,101140
2017-06-11T03:05:42.165Z,101137
2017-06-11T03:08:10.371Z,101138
2017-06-11T03:10:38.782Z,101130
2017-06-11T03:13:07.000Z,101131
2017-06-11T03:15:35.219Z,101136
2017-06-11T03:18:04.652Z,101136
2017-06-11T03:20:32.819Z,101138
2017-06-11T03:23:01.753Z,101137
2017-06-11T03:25:30.117Z,101137
2017-06-11T03:27:58.417Z,101135
2017-06-11T03:30:26.587Z,101138
2017-06-11T03:32:55.064Z,101127
2017-06-11T03:35:23.274Z,101126
2017-06-11T03:37:51.454Z,101121
2017-06-11T03:40:19.824Z,101125
2017-06-11T03:42:48.029Z,101126
2017-06-11T03:45:16.995Z,101114
2017-06-11T03:47:46.216Z,101112
2017-06-11T03:50:14.450Z,101125
2017-06-11T03:52:42.620Z,101125
2017-06-11T03:55:11.170Z,101119
2017-06-11T03:57:39.359Z,101129
2017-06-11T04:00:07.566Z,101120
2017-06-11T04:02:36.034Z,101116
2017-06-11T04:05:04.214Z,101117
2017-06-11T04:07:32.395Z,101118
2017-06-11T04:10:00.870Z,101119
2017-06-11T04:12:29.050Z,101113
2017-06-11T04:14:57.226Z,101111
2017-06-11T04:17:25.683Z,101111
2017-06-11T04:19:53.863Z,101106
2017-06-11T04:22:22.053Z,101111
2017-06-11T04:24:50.554Z,101106
2017-06-11T04:27:18.757Z,101104
2017-06-11T04:29:46.932Z,101104
2017-06-11T04:32:15.339Z,101108
2017-06-11T04:34:43.512Z,101101
2017-06-11T04:37:11.735Z,101101
2017-06-11T04:39:40.175Z,101094
2017-06-11T04:42:08.355Z,101099
2017-06-11T04:44:36.567Z,101099
2017-06-11T04:47:04.983Z,101095
2017-06-11T04:49:33.164Z,101092
2017-06-11T04:52:01.350Z,101086
2017-06-11T04:54:29.773Z,101092
2017-06-11T04:56:57.954Z,101084
2017-06-11T04:59:26.173Z,101091
2017-06-11T05:01:54.661Z,101086
2017-06-11T05:04:22.889Z,101088
2017-06-11T05:06:51.114Z,101089
2017-06-11T05:09:20.395Z,101092
2017-06-11T05:11:48.702Z,101082
2017-06-11T05:14:17.663Z,101076
2017-06-11T05:16:46.132Z,101083
2017-06-11T05:19:14.312Z,101073
2017-06-11T05:21:42.481Z,101073
2017-06-11T05:24:10.854Z,101081
2017-06-11T05:26:39.105Z,101074
2017-06-11T05:29:07.305Z,101066
2017-06-11T05:31:35.793Z,101067
2017-06-11T05:34:03.981Z,101068
2017-06-11T05:36:32.149Z,101064
2017-06-11T05:39:00.537Z,101057
2017-06-11T05:41:28.723Z,101057
2017-06-11T05:43:57.654Z,101056
2017-06-11T05:46:26.062Z,101048
2017-06-11T05:48:54.258Z,101048
2017-06-11T05:51:22.449Z,101052
2017-06-11T05:53:50.904Z,101045
2017-06-11T05:56:19.081Z,101044
2017-06-11T05:58:47.385Z,101039
2017-06-11T06:01:15.747Z,101044
2017-06-11T06:03:43.942Z,101035
2017-06-11T06:06:12.125Z,101036
2017-06-11T06:08:40.666Z,101036
2017-06-11T06:11:09.618Z,101027
2017-06-11T06:13:37.797Z,101026
2017-06-11T06:16:06.307Z,101030
2017-06-11T06:18:34.502Z,101030
2017-06-11T06:21:02.688Z,101032
2017-06-11T06:23:31.061Z,101035
2017-06-11T06:25:59.250Z,101043
2017-06-11T06:28:27.424Z,101041
2017-06-11T06:30:55.791Z,101036
2017-06-11T06:33:23.978Z,101038
2017-06-11T06:35:52.206Z,101034
2017-06-11T06:38:21.501Z,101041
2017-06-11T06:40:50.481Z,101046
2017-06-11T06:43:18.675Z,101050
2017-06-11T06:45:47.915Z,101049
2017-06-11T06:48:16.083Z,101050
2017-06-11T06:50:44.259Z,101049
2017-06-11T06:53:12.694Z,101048
2017-06-11T06:55:40.866Z,101052
2017-06-11T06:58:09.122Z,101048
2017-06-11T07:00:37.698Z,101048
2017-06-11T07:03:05.897Z,101047
2017-06-11T07:05:34.849Z,101046
2017-06-11T07:08:03.246Z,101048
2017-06-11T07:10:31.495Z,101047
2017-06-11T07:12:59.707Z,101054
2017-06-11T07:15:28.232Z,101047
2017-06-11T07:17:56.442Z,101043
2017-06-11T07:20:24.649Z,101043
2017-06-11T07:22:53.118Z,101042
2017-06-11T07:25:21.307Z,101040
2017-06-11T07:27:50.276Z,101040
2017-06-11T07:30:18.734Z,101032
2017-06-11T07:32:46.924Z,101030
2017-06-11T07:35:15.116Z,101027
2017-06-11T07:37:44.274Z,101031
2017-06-11T07:40:12.462Z,101039
2017-06-11T07:42:40.663Z,101032
2017-06-11T07:45:09.800Z,101032
2017-06-11T07:47:37.984Z,101028
2017-06-11T07:50:06.188Z,101038
2017-06-11T07:52:34.763Z,101032
2017-06-11T07:55:03.038Z,101034
2017-06-11T07:57:31.241Z,101027
2017-06-11T07:59:59.807Z,101030
2017-06-11T08:02:28.811Z,101015
2017-06-11T08:04:57.012Z,101024
2017-06-11T08:07:25.409Z,101025
2017-06-11T08:09:53.587Z,101017
2017-06-11T08:12:21.791Z,101017
2017-06-11T08:14:50.530Z,101005
2017-06-11T08:17:18.747Z,101007
2017-06-11T08:19:46.981Z,101006
2017-06-11T08:22:16.096Z,101007
2017-06-11T08:24:44.302Z,101011
2017-06-11T08:27:12.516Z,100999
2017-06-11T08:29:41.042Z,101001
2017-06-11T08:32:09.253Z,101003
2017-06-11T08:34:37.464Z,101003
2017-06-11T08:37:05.939Z,101002
2017-06-11T08:39:34.126Z,100992
2017-06-11T08:42:02.439Z,101005
2017-06-11T08:44:30.890Z,100995
2017-06-11T08:46:59.069Z,100998
2017-06-11T08:49:27.266Z,101004
2017-06-11T08:51:55.746Z,101003
2017-06-11T08:54:24.010Z,101008
2017-06-11T08:56:52.976Z,101000
2017-06-11T08:59:21.468Z,101000
2017-06-11T09:01:49.730Z,101012
2017-06-11T09:04:17.929Z,101011
2017-06-11T09:06:46.384Z,101000
2017-06-11T09:09:14.569Z,101002
2017-06-11T09:11:42.890Z,101003
2017-06-11T09:14:11.426Z,101010
2017-06-11T09:16:39.667Z,101007
2017-06-11T09:19:07.912Z,101004
2017-06-11T09:21:36.361Z,100998
2017-06-11T09:24:04.573Z,100990
2017-06-11T09:26:32.804Z,100996
2017-06-11T09:29:01.197Z,100999
2017-06-11T09:31:29.368Z,100989
2017-06-11T09:33:57.586Z,100991
2017-06-11T09:36:26.001Z,100992
2017-06-11T09:38:54.237Z,100990
2017-06-11T09:41:22.588Z,100980
2017-06-11T09:43:51.031Z,100983
2017-06-11T09:46:19.284Z,100980
2017-06-11T09:48:47.494Z,100969
2017-06-11T09:51:16.162Z,100966
2017-06-11T09:53:44.366Z,100958
2017-06-11T09:56:13.309Z,100959
2017-06-11T09:58:41.857Z,100965
2017-06-11T10:01:10.091Z,100960
2017-06-11T10:03:38.298Z,100956
2017-06-11T10:06:06.763Z,100956
2017-06-11T10:08:35.743Z,100960
2017-06-11T10:11:04.073Z,100953
2017-06-11T10:13:32.480Z,100936
2017-06-11T10:16:00.711Z,100939
2017-06-11T10:18:28.929Z,100937
2017-06-11T10:20:57.347Z,100941
2017-06-11T10:23:26.296Z,100939
2017-06-11T10:25:54.526Z,100939
2017-06-11T10:28:23.084Z,100931
2017-06-11T10:30:52.106Z,100931
2017-06-11T10:33:20.314Z,100919
2017-06-11T10:35:48.531Z,100924
2017-06-11T10:38:16.745Z,100917
2017-06-11T10:40:44.991Z,100919
2017-06-11T10:43:13.975Z,100922
2017-06-11T10:45:42.206Z,100905
2017-06-11T10:48:10.514Z,100911
2017-06-11T10:50:38.704Z,100906
2017-06-11T10:53:06.920Z,100904
2017-06-11T10:55:35.099Z,100910
2017-06-11T10:58:03.275Z,100908
2017-06-11T11:00:31.555Z,100902
2017-06-11T11:02:59.800Z,100900
2017-06-11T11:05:28.033Z,100888
2017-06-11T11:07:56.290Z,100889
2017-06-11T11:10:24.491Z,100879
2017-06-11T11:12:52.739Z,100882
2017-06-11T11:15:20.956Z,100880
2017-06-11T11:17:49.437Z,100869
2017-06-11T11:20:17.657Z,100859
2017-06-11T11:22:46.633Z,100858
2017-06-11T11:25:14.870Z,100862
2017-06-11T11:27:43.837Z,100858
2017-06-11T11:30:12.037Z,100849
2017-06-11T11:32:40.285Z,100851
2017-06-11T11:35:08.503Z,100844
2017-06-11T11:37:36.911Z,100846
2017-06-11T11:40:05.137Z,100843
2017-06-11T11:42:33.383Z,100837
2017-06-11T11:45:01.600Z,100825
2017-06-11T11:47:29.783Z,100820
2017-06-11T11:49:58.044Z,100814
2017-06-11T11:52:26.238Z,100826
2017-06-11T11:54:54.415Z,100829
2017-06-11T11:57:22.627Z,100827
2017-06-11T11:59:50.813Z,100817
2017-06-11T12:02:19.848Z,100814
2017-06-11T12:04:48.043Z,100810
2017-06-11T12:07:16.304Z,100806
2017-06-11T12:09:44.760Z,100797
2017-06-11T12:12:12.994Z,100801
2017-06-11T12:14:42.012Z,100806
2017-06-11T12:17:10.219Z,100794
2017-06-11T12:19:38.434Z,100786
2017-06-11T12:22:06.633Z,100783
2017-06-11T12:24:34.830Z,100773
2017-06-11T12:27:03.196Z,100782
2017-06-11T12:29:31.436Z,100780
2017-06-11T12:31:59.644Z,100766
2017-06-11T12:34:27.855Z,100762
2017-06-11T12:36:56.080Z,100771
2017-06-11T12:39:24.494Z,100766
2017-06-11T12:41:52.766Z,100768
2017-06-11T12:44:20.969Z,100764
2017-06-11T12:46:49.189Z,100758
2017-06-11T12:49:17.411Z,100754
2017-06-11T12:51:45.904Z,100747
2017-06-11T12:54:14.088Z,100738
2017-06-11T12:56:42.294Z,100732
2017-06-11T12:59:10.502Z,100727
2017-06-11T13:01:38.715Z,100723
2017-06-11T13:04:07.048Z,100725
2017-06-11T13:06:35.340Z,100718
2017-06-11T13:09:03.585Z,100716
2017-06-11T13:11:31.934Z,100712
2017-06-11T13:14:00.957Z,100698
2017-06-11T13:16:29.164Z,100699
2017-06-11T13:18:57.394Z,100704
2017-06-11T13:21:25.651Z,100707
2017-06-11T13:23:53.870Z,100692
2017-06-11T13:26:22.048Z,100685
2017-06-11T13:28:50.307Z,100687
2017-06-11T13:31:18.559Z,100683
2017-06-11T13:33:46.744Z,100685
2017-06-11T13:36:15.111Z,100673
2017-06-11T13:38:43.255Z,100665
2017-06-11T13:41:12.227Z,100666
2017-06-11T13:43:40.476Z,100656
2017-06-11T13:46:08.652Z,100656
2017-06-11T13:48:37.071Z,100659
2017-06-11T13:51:05.310Z,100661
2017-06-11T13:53:33.526Z,100662
2017-06-11T13:56:02.551Z,100660
2017-06-11T13:58:31.472Z,100644
2017-06-11T14:00:59.962Z,100654
2017-06-11T14:03:28.163Z,100641
2017-06-11T14:05:57.123Z,100634
2017-06-11T14:08:25.468Z,100634
2017-06-11T14:10:53.705Z,100627
2017-06-11T14:13:22.764Z,100626
2017-06-11T14:15:51.021Z,100623
2017-06-11T14:18:19.233Z,100616
2017-06-11T14:20:47.499Z,100618
2017-06-11T14:23:15.701Z,100611
2017-06-11T14:25:44.042Z,100606
2017-06-11T14:28:16.953Z,100602
2017-06-11T14:30:45.402Z,100600
2017-06-11T14:33:13.635Z,100599
2017-06-11T14:35:41.839Z,100586
2017-06-11T14:38:10.051Z,100586
2017-06-11T14:40:38.345Z,100579
2017-06-11T14:43:07.816Z,100571
2017-06-11T14:45:36.024Z,100578
2017-06-11T14:48:04.339Z,100576
2017-06-11T14:50:32.546Z,100571
2017-06-11T14:53:00.775Z,100562
2017-06-11T14:55:29.172Z,100555
2017-06-11T14:57:57.380Z,100558
2017-06-11T15:00:25.600Z,100559
2017-06-11T15:02:53.776Z,100546
2017-06-11T15:05:21.993Z,100542
2017-06-11T15:07:50.375Z,100539
2017-06-11T15:10:18.605Z,100531
2017-06-11T15:12:46.790Z,100519
2017-06-11T15:15:15.020Z,100535
2017-06-11T15:17:43.233Z,100528
2017-06-11T15:20:11.849Z,100523
2017-06-11T15:22:40.052Z,100523
2017-06-11T15:25:08.257Z,100523
2017-06-11T15:27:36.458Z,100528
2017-06-11T15:30:04.652Z,100535
2017-06-11T15:32:33.199Z,100524
2017-06-11T15:35:01.451Z,100532
2017-06-11T15:37:29.657Z,100540
2017-06-11T15:39:57.896Z,100537
2017-06-11T15:42:26.179Z,100540
2017-06-11T15:44:54.430Z,100543
2017-06-11T15:47:22.762Z,100548
2017-06-11T15:49:50.957Z,100545
2017-06-11T15:52:19.179Z,100540
2017-06-11T15:54:47.404Z,100537
2017-06-11T15:57:16.643Z,100532
2017-06-11T15:59:44.833Z,100526
2017-06-11T16:02:13.072Z,100534
2017-06-11T16:04:41.280Z,100531
2017-06-11T16:07:09.515Z,100519
2017-06-11T16:09:38.287Z,100521
2017-06-11T16:12:07.257Z,100509
2017-06-11T16:14:35.480Z,100501
2017-06-11T16:30:03.737Z,100499
2017-06-11T16:32:32.013Z,100495
2017-06-11T16:35:00.221Z,100486
2017-06-11T16:37:28.421Z,100483
2017-06-11T16:39:56.610Z,100479
2017-06-11T16:42:25.602Z,100476
2017-06-11T16:44:54.582Z,100467
2017-06-11T16:47:22.821Z,100474
2017-06-11T16:49:51.033Z,100476
2017-06-11T16:52:19.247Z,100477
2017-06-11T16:54:47.589Z,100470
2017-06-11T16:57:15.796Z,100466
2017-06-11T16:59:44.172Z,100468
2017-06-11T17:02:12.376Z,100476
2017-06-11T17:04:40.570Z,100475
2017-06-11T17:07:08.806Z,100487
2017-06-11T17:09:37.017Z,100502
2017-06-11T17:12:05.412Z,100501
2017-06-11T17:14:33.613Z,100503
2017-06-11T17:17:01.860Z,100515
2017-06-11T17:19:30.099Z,100514
2017-06-11T17:21:58.370Z,100518
2017-06-11T17:24:26.679Z,100533
2017-06-11T17:26:54.888Z,100527
2017-06-11T17:29:23.122Z,100541
2017-06-11T17:31:51.447Z,100547
2017-06-11T17:34:19.740Z,100567
2017-06-11T17:36:48.143Z,100570
2017-06-11T17:39:16.345Z,100564
2017-06-11T17:41:44.536Z,100564
2017-06-11T17:44:12.749Z,100562
2017-06-11T17:46:40.961Z,100574
2017-06-11T17:49:09.525Z,100565
2017-06-11T17:51:37.704Z,100553
2017-06-11T17:54:05.914Z,100547
2017-06-11T17:56:34.117Z,100543
2017-06-11T17:59:02.302Z,100533
2017-06-11T18:01:30.579Z,100538
2017-06-11T18:03:58.794Z,100541
2017-06-11T18:06:26.991Z,100536
2017-06-11T18:08:55.202Z,100529
2017-06-11T18:11:23.384Z,100537
2017-06-11T18:13:51.643Z,100540
2017-06-11T18:16:19.843Z,100533
2017-06-11T18:18:48.067Z,100531
2017-06-11T18:21:16.278Z,100521
2017-06-11T18:23:44.508Z,100525
2017-06-11T18:26:13.283Z,100510
2017-06-11T18:28:41.483Z,100505
2017-06-11T18:31:09.694Z,100487
2017-06-11T18:33:37.916Z,100498
2017-06-11T18:36:06.149Z,100479
2017-06-11T18:38:34.550Z,100485
2017-06-11T18:41:02.801Z,100480
2017-06-11T18:43:31.067Z,100476
2017-06-11T18:45:59.270Z,100462
2017-06-11T18:48:27.462Z,100447
2017-06-11T18:50:55.755Z,100436
2017-06-11T18:53:24.061Z,100438
2017-06-11T18:55:52.341Z,100440
2017-06-11T18:58:20.991Z,100442
2017-06-11T19:00:49.193Z,100442
2017-06-11T19:03:17.413Z,100439
2017-06-11T19:05:45.719Z,100436
2017-06-11T19:08:13.982Z,100441
2017-06-11T19:10:42.708Z,100444
2017-06-11T19:13:10.955Z,100441
2017-06-11T19:15:39.292Z,100433
2017-06-11T19:18:07.653Z,100421
2017-06-11T19:20:35.893Z,100411
2017-06-11T19:23:04.337Z,100401
2017-06-11T19:25:32.566Z,100409
2017-06-11T19:28:01.007Z,100403
2017-06-11T19:30:29.235Z,100404
2017-06-11T19:32:57.682Z,100408
2017-06-11T19:35:26.456Z,100402
2017-06-11T19:37:54.664Z,100410
2017-06-11T19:40:22.888Z,100396
2017-06-11T19:42:51.134Z,100379
2017-06-11T19:45:19.464Z,100383
2017-06-11T19:47:47.899Z,100382
2017-06-11T19:50:16.142Z,100373
2017-06-11T19:52:44.316Z,100379
2017-06-11T19:55:12.557Z,100371
2017-06-11T19:57:40.799Z,100375
2017-06-11T20:00:09.320Z,100358
2017-06-11T20:02:37.543Z,100362
2017-06-11T20:05:06.516Z,100356
2017-06-11T20:07:34.770Z,100362
2017-06-11T20:10:02.955Z,100360
2017-06-11T20:12:31.167Z,100345
2017-06-11T20:14:59.527Z,100343
2017-06-11T20:17:27.765Z,100333
2017-06-11T20:19:55.976Z,100331
2017-06-11T20:22:24.185Z,100330
2017-06-11T20:24:52.787Z,100341
2017-06-11T20:27:21.036Z,100330
2017-06-11T20:29:49.205Z,100326
2017-06-11T20:32:17.414Z,100325
2017-06-11T20:34:45.641Z,100330
2017-06-11T20:37:14.193Z,100322
2017-06-11T20:39:42.435Z,100320
2017-06-11T20:42:10.661Z,100317
2017-06-11T20:44:38.875Z,100310
2017-06-11T20:47:07.062Z,100313
2017-06-11T20:49:35.331Z,100310
2017-06-11T20:52:03.526Z,100307
2017-06-11T20:54:31.714Z,100304
2017-06-11T20:56:59.966Z,100302
2017-06-11T20:59:28.220Z,100299
2017-06-11T21:01:56.476Z,100299
2017-06-11T21:04:24.714Z,100290
2017-06-11T21:06:52.921Z,100294
2017-06-11T21:09:21.164Z,100291
2017-06-11T21:11:49.348Z,100289
2017-06-11T21:14:17.877Z,100288
2017-06-11T21:16:46.070Z,100289
2017-06-11T21:19:14.283Z,100279
2017-06-11T21:21:43.301Z,100282
2017-06-11T21:24:11.497Z,100279
2017-06-11T21:26:39.690Z,100274
2017-06-11T21:29:07.878Z,100260
2017-06-11T21:31:36.139Z,100259
2017-06-11T21:34:04.372Z,100263
2017-06-11T21:36:32.584Z,100252
2017-06-11T21:39:00.947Z,100245
2017-06-11T21:41:29.203Z,100240
2017-06-11T21:43:57.409Z,100234
2017-06-11T21:46:25.618Z,100230
2017-06-11T21:48:54.580Z,100232
2017-06-11T21:51:22.846Z,100255
2017-06-11T21:53:51.056Z,100243
2017-06-11T21:56:20.011Z,100249
2017-06-11T21:58:48.211Z,100260
2017-06-11T22:01:16.398Z,100272
2017-06-11T22:03:44.798Z,100277
2017-06-11T22:06:12.979Z,100279
2017-06-11T22:08:41.162Z,100278
2017-06-11T22:11:09.378Z,100279
2017-06-11T22:13:37.623Z,100285
2017-06-11T22:16:06.162Z,100294
2017-06-11T22:18:34.338Z,100293
2017-06-11T22:21:02.526Z,100307
2017-06-11T22:23:30.762Z,100298
2017-06-11T22:25:58.945Z,100307
2017-06-11T22:28:27.147Z,100305
2017-06-11T22:30:55.337Z,100303
2017-06-11T22:33:23.529Z,100297
2017-06-11T22:35:51.722Z,100297
2017-06-11T22:38:19.909Z,100288
2017-06-11T22:40:48.286Z,100284
2017-06-11T22:43:16.500Z,100283
2017-06-11T22:45:44.707Z,100287
2017-06-11T22:48:12.922Z,100288
2017-06-11T22:50:41.127Z,100277
2017-06-11T22:53:09.715Z,100275
2017-06-11T22:55:37.940Z,100276
2017-06-11T22:58:06.925Z,100262
2017-06-11T23:00:35.180Z,100278
2017-06-11T23:03:03.357Z,100262
2017-06-11T23:05:31.824Z,100245
2017-06-11T23:08:00.007Z,100233
2017-06-11T23:10:28.215Z,100244
2017-06-11T23:12:56.427Z,100255
2017-06-11T23:15:24.596Z,100251
2017-06-11T23:17:52.965Z,100242
2017-06-11T23:20:21.162Z,100235
2017-06-11T23:22:49.366Z,100250
2017-06-11T23:25:17.581Z,100265
2017-06-11T23:27:45.787Z,100267
2017-06-11T23:30:14.344Z,100262
2017-06-11T23:32:42.525Z,100269
2017-06-11T23:35:10.699Z,100273
2017-06-11T23:37:38.935Z,100266
2017-06-11T23:40:08.016Z,100263
2017-06-11T23:42:36.226Z,100264
2017-06-11T23:45:04.402Z,100259
2017-06-11T23:47:32.579Z,100268
2017-06-11T23:50:00.803Z,100280
2017-06-11T23:52:30.319Z,100278
2017-06-11T23:54:58.850Z,100283
2017-06-11T23:57:27.053Z,100292
2017-06-11T23:59:55.217Z,100292
